sensor_id;sensor_type;location;lat;lon;timestamp;P1;durP1;ratioP1;P2;durP2;ratioP2
53269;SDS011;39159;45.634;9.420;2022-09-17T00:00:21;10.00;;;6.30;;
53269;SDS011;39159;45.634;9.420;2022-09-17T00:02:53;16.15;;;6.38;;
53269;SDS011;39159;45.634;9.420;2022-09-17T00:05:20;9.55;;;6.40;;
53269;SDS011;39159;45.634;9.420;2022-09-17T00:07:48;13.75;;;8.30;;
53269;SDS011;39159;45.634;9.420;2022-09-17T00:10:15;17.40;;;8.48;;
53269;SDS011;39159;45.634;9.420;2022-09-17T00:12:40;16.52;;;8.35;;
53269;SDS011;39159;45.634;9.420;2022-09-17T00:15:06;37.58;;;7.95;;
53269;SDS011;39159;45.634;9.420;2022-09-17T00:17:32;17.05;;;7.65;;
53269;SDS011;39159;45.634;9.420;2022-09-17T00:19:57;12.15;;;6.65;;
53269;SDS011;39159;45.634;9.420;2022-09-17T00:22:23;13.40;;;6.25;;
53269;SDS011;39159;45.634;9.420;2022-09-17T00:24:48;10.88;;;6.78;;
53269;SDS011;39159;45.634;9.420;2022-09-17T00:27:13;13.25;;;6.45;;
53269;SDS011;39159;45.634;9.420;2022-09-17T00:29:39;11.48;;;6.55;;
53269;SDS011;39159;45.634;9.420;2022-09-17T00:32:05;8.35;;;6.45;;
53269;SDS011;39159;45.634;9.420;2022-09-17T00:34:30;10.90;;;6.70;;
53269;SDS011;39159;45.634;9.420;2022-09-17T00:36:56;9.70;;;6.18;;
53269;SDS011;39159;45.634;9.420;2022-09-17T00:39:21;12.65;;;6.15;;
53269;SDS011;39159;45.634;9.420;2022-09-17T00:41:46;8.18;;;6.28;;
53269;SDS011;39159;45.634;9.420;2022-09-17T00:47:38;15.32;;;6.47;;
53269;SDS011;39159;45.634;9.420;2022-09-17T00:50:15;8.68;;;5.65;;
53269;SDS011;39159;45.634;9.420;2022-09-17T00:52:50;10.75;;;5.72;;
53269;SDS011;39159;45.634;9.420;2022-09-17T00:57:48;9.57;;;5.70;;
53269;SDS011;39159;45.634;9.420;2022-09-17T01:00:16;11.93;;;6.00;;
53269;SDS011;39159;45.634;9.420;2022-09-17T01:02:42;10.75;;;5.57;;
53269;SDS011;39159;45.634;9.420;2022-09-17T01:05:08;13.07;;;6.50;;
53269;SDS011;39159;45.634;9.420;2022-09-17T01:15:31;7.65;;;5.45;;
53269;SDS011;39159;45.634;9.420;2022-09-17T01:31:55;11.57;;;4.70;;
53269;SDS011;39159;45.634;9.420;2022-09-17T01:37:36;7.95;;;4.47;;
53269;SDS011;39159;45.634;9.420;2022-09-17T01:40:25;6.75;;;4.30;;
53269;SDS011;39159;45.634;9.420;2022-09-17T01:43:20;6.45;;;4.75;;
53269;SDS011;39159;45.634;9.420;2022-09-17T01:45:51;9.07;;;4.90;;
53269;SDS011;39159;45.634;9.420;2022-09-17T01:48:25;9.60;;;4.68;;
53269;SDS011;39159;45.634;9.420;2022-09-17T01:51:07;12.30;;;5.30;;
53269;SDS011;39159;45.634;9.420;2022-09-17T01:53:37;7.10;;;5.20;;
53269;SDS011;39159;45.634;9.420;2022-09-17T01:56:09;11.73;;;5.35;;
53269;SDS011;39159;45.634;9.420;2022-09-17T01:58:41;7.30;;;5.03;;
53269;SDS011;39159;45.634;9.420;2022-09-17T02:01:12;7.45;;;5.20;;
53269;SDS011;39159;45.634;9.420;2022-09-17T02:04:06;7.43;;;4.50;;
53269;SDS011;39159;45.634;9.420;2022-09-17T02:06:40;7.28;;;4.30;;
53269;SDS011;39159;45.634;9.420;2022-09-17T02:09:12;4.15;;;3.47;;
53269;SDS011;39159;45.634;9.420;2022-09-17T02:11:45;4.72;;;3.15;;
53269;SDS011;39159;45.634;9.420;2022-09-17T02:14:27;4.82;;;2.72;;
53269;SDS011;39159;45.634;9.420;2022-09-17T02:17:02;4.85;;;3.40;;
53269;SDS011;39159;45.634;9.420;2022-09-17T02:19:34;4.20;;;2.88;;
53269;SDS011;39159;45.634;9.420;2022-09-17T02:27:36;7.13;;;3.22;;
53269;SDS011;39159;45.634;9.420;2022-09-17T02:30:15;3.70;;;2.30;;
53269;SDS011;39159;45.634;9.420;2022-09-17T02:32:41;2.70;;;2.00;;
53269;SDS011;39159;45.634;9.420;2022-09-17T02:35:07;2.15;;;1.63;;
53269;SDS011;39159;45.634;9.420;2022-09-17T02:37:34;3.30;;;1.60;;
53269;SDS011;39159;45.634;9.420;2022-09-17T02:40:00;3.90;;;1.90;;
53269;SDS011;39159;45.634;9.420;2022-09-17T02:47:49;3.05;;;1.35;;
53269;SDS011;39159;45.634;9.420;2022-09-17T02:53:13;2.55;;;1.20;;
53269;SDS011;39159;45.634;9.420;2022-09-17T02:56:00;5.55;;;1.20;;
53269;SDS011;39159;45.634;9.420;2022-09-17T02:58:55;1.92;;;1.20;;
53269;SDS011;39159;45.634;9.420;2022-09-17T03:01:43;1.38;;;1.20;;
53269;SDS011;39159;45.634;9.420;2022-09-17T03:04:15;2.38;;;1.30;;
53269;SDS011;39159;45.634;9.420;2022-09-17T03:06:44;2.88;;;1.50;;
53269;SDS011;39159;45.634;9.420;2022-09-17T03:09:12;2.13;;;1.20;;
53269;SDS011;39159;45.634;9.420;2022-09-17T03:11:38;2.78;;;1.35;;
53269;SDS011;39159;45.634;9.420;2022-09-17T03:14:04;1.85;;;1.30;;
53269;SDS011;39159;45.634;9.420;2022-09-17T03:16:30;1.38;;;1.20;;
53269;SDS011;39159;45.634;9.420;2022-09-17T03:18:55;3.42;;;1.35;;
53269;SDS011;39159;45.634;9.420;2022-09-17T03:21:21;1.73;;;1.10;;
53269;SDS011;39159;45.634;9.420;2022-09-17T03:23:46;1.63;;;1.00;;
53269;SDS011;39159;45.634;9.420;2022-09-17T03:26:11;4.53;;;1.10;;
53269;SDS011;39159;45.634;9.420;2022-09-17T03:28:37;1.90;;;1.13;;
53269;SDS011;39159;45.634;9.420;2022-09-17T03:31:02;1.73;;;1.15;;
53269;SDS011;39159;45.634;9.420;2022-09-17T03:33:30;2.45;;;1.17;;
53269;SDS011;39159;45.634;9.420;2022-09-17T03:35:55;2.38;;;0.90;;
53269;SDS011;39159;45.634;9.420;2022-09-17T03:38:22;2.83;;;0.90;;
53269;SDS011;39159;45.634;9.420;2022-09-17T03:41:00;1.10;;;0.90;;
53269;SDS011;39159;45.634;9.420;2022-09-17T03:43:27;1.02;;;0.80;;
53269;SDS011;39159;45.634;9.420;2022-09-17T03:45:53;3.00;;;0.70;;
53269;SDS011;39159;45.634;9.420;2022-09-17T03:48:19;0.90;;;0.70;;
53269;SDS011;39159;45.634;9.420;2022-09-17T03:50:44;1.95;;;0.80;;
53269;SDS011;39159;45.634;9.420;2022-09-17T03:53:10;0.63;;;0.63;;
53269;SDS011;39159;45.634;9.420;2022-09-17T03:55:38;0.82;;;0.60;;
53269;SDS011;39159;45.634;9.420;2022-09-17T03:58:04;1.23;;;0.70;;
53269;SDS011;39159;45.634;9.420;2022-09-17T04:00:30;0.93;;;0.73;;
53269;SDS011;39159;45.634;9.420;2022-09-17T04:02:56;0.95;;;0.70;;
53269;SDS011;39159;45.634;9.420;2022-09-17T04:05:22;1.20;;;0.77;;
53269;SDS011;39159;45.634;9.420;2022-09-17T04:07:47;0.77;;;0.70;;
53269;SDS011;39159;45.634;9.420;2022-09-17T04:10:13;0.90;;;0.80;;
53269;SDS011;39159;45.634;9.420;2022-09-17T04:12:38;1.40;;;0.80;;
53269;SDS011;39159;45.634;9.420;2022-09-17T04:15:04;2.80;;;0.93;;
53269;SDS011;39159;45.634;9.420;2022-09-17T04:17:29;1.00;;;0.65;;
53269;SDS011;39159;45.634;9.420;2022-09-17T04:19:55;0.85;;;0.70;;
53269;SDS011;39159;45.634;9.420;2022-09-17T04:22:22;0.80;;;0.63;;
53269;SDS011;39159;45.634;9.420;2022-09-17T04:24:47;2.88;;;0.70;;
53269;SDS011;39159;45.634;9.420;2022-09-17T04:27:13;0.88;;;0.70;;
53269;SDS011;39159;45.634;9.420;2022-09-17T04:29:38;1.52;;;0.60;;
53269;SDS011;39159;45.634;9.420;2022-09-17T04:32:04;1.00;;;0.73;;
53269;SDS011;39159;45.634;9.420;2022-09-17T04:34:29;1.15;;;0.70;;
53269;SDS011;39159;45.634;9.420;2022-09-17T04:36:55;0.80;;;0.60;;
53269;SDS011;39159;45.634;9.420;2022-09-17T04:39:21;1.40;;;0.80;;
53269;SDS011;39159;45.634;9.420;2022-09-17T04:41:46;1.05;;;0.80;;
53269;SDS011;39159;45.634;9.420;2022-09-17T04:44:12;1.92;;;0.80;;
53269;SDS011;39159;45.634;9.420;2022-09-17T04:46:37;2.28;;;1.08;;
53269;SDS011;39159;45.634;9.420;2022-09-17T04:49:03;1.20;;;0.90;;
53269;SDS011;39159;45.634;9.420;2022-09-17T04:51:28;1.33;;;0.90;;
53269;SDS011;39159;45.634;9.420;2022-09-17T04:53:53;1.90;;;0.70;;
53269;SDS011;39159;45.634;9.420;2022-09-17T04:56:19;2.85;;;0.80;;
53269;SDS011;39159;45.634;9.420;2022-09-17T04:58:44;0.70;;;0.70;;
53269;SDS011;39159;45.634;9.420;2022-09-17T05:01:10;1.38;;;0.88;;
53269;SDS011;39159;45.634;9.420;2022-09-17T05:03:37;3.50;;;0.80;;
53269;SDS011;39159;45.634;9.420;2022-09-17T05:06:03;0.60;;;0.55;;
53269;SDS011;39159;45.634;9.420;2022-09-17T05:08:29;1.10;;;0.80;;
53269;SDS011;39159;45.634;9.420;2022-09-17T05:10:54;0.70;;;0.70;;
53269;SDS011;39159;45.634;9.420;2022-09-17T05:13:20;3.08;;;0.70;;
53269;SDS011;39159;45.634;9.420;2022-09-17T05:15:45;3.47;;;0.60;;
53269;SDS011;39159;45.634;9.420;2022-09-17T05:18:11;0.90;;;0.77;;
53269;SDS011;39159;45.634;9.420;2022-09-17T05:20:37;0.80;;;0.60;;
53269;SDS011;39159;45.634;9.420;2022-09-17T05:23:02;1.88;;;0.80;;
53269;SDS011;39159;45.634;9.420;2022-09-17T05:25:28;0.90;;;0.50;;
53269;SDS011;39159;45.634;9.420;2022-09-17T05:27:53;0.80;;;0.50;;
53269;SDS011;39159;45.634;9.420;2022-09-17T05:30:20;1.98;;;0.85;;
53269;SDS011;39159;45.634;9.420;2022-09-17T05:32:45;1.13;;;0.80;;
53269;SDS011;39159;45.634;9.420;2022-09-17T05:35:11;1.00;;;0.60;;
53269;SDS011;39159;45.634;9.420;2022-09-17T05:37:37;2.05;;;0.85;;
53269;SDS011;39159;45.634;9.420;2022-09-17T05:40:03;1.80;;;0.80;;
53269;SDS011;39159;45.634;9.420;2022-09-17T05:42:31;2.55;;;0.98;;
53269;SDS011;39159;45.634;9.420;2022-09-17T05:44:56;3.72;;;1.10;;
53269;SDS011;39159;45.634;9.420;2022-09-17T05:47:22;3.05;;;1.10;;
53269;SDS011;39159;45.634;9.420;2022-09-17T05:49:48;2.53;;;1.23;;
53269;SDS011;39159;45.634;9.420;2022-09-17T05:52:14;3.17;;;1.20;;
53269;SDS011;39159;45.634;9.420;2022-09-17T05:54:40;1.77;;;1.00;;
53269;SDS011;39159;45.634;9.420;2022-09-17T05:57:05;1.65;;;1.00;;
53269;SDS011;39159;45.634;9.420;2022-09-17T05:59:31;2.55;;;1.08;;
53269;SDS011;39159;45.634;9.420;2022-09-17T06:01:57;1.85;;;1.00;;
53269;SDS011;39159;45.634;9.420;2022-09-17T06:04:22;4.00;;;1.30;;
53269;SDS011;39159;45.634;9.420;2022-09-17T06:06:48;9.68;;;1.38;;
53269;SDS011;39159;45.634;9.420;2022-09-17T06:09:13;1.63;;;1.05;;
53269;SDS011;39159;45.634;9.420;2022-09-17T06:11:39;3.13;;;0.90;;
53269;SDS011;39159;45.634;9.420;2022-09-17T06:14:04;3.42;;;1.10;;
53269;SDS011;39159;45.634;9.420;2022-09-17T06:16:29;3.03;;;1.20;;
53269;SDS011;39159;45.634;9.420;2022-09-17T06:18:55;5.53;;;1.20;;
53269;SDS011;39159;45.634;9.420;2022-09-17T06:21:20;1.58;;;1.00;;
53269;SDS011;39159;45.634;9.420;2022-09-17T06:23:47;3.72;;;1.10;;
53269;SDS011;39159;45.634;9.420;2022-09-17T06:26:13;3.38;;;0.90;;
53269;SDS011;39159;45.634;9.420;2022-09-17T06:28:39;2.55;;;0.90;;
53269;SDS011;39159;45.634;9.420;2022-09-17T06:31:05;1.80;;;0.90;;
53269;SDS011;39159;45.634;9.420;2022-09-17T06:33:32;0.70;;;0.60;;
53269;SDS011;39159;45.634;9.420;2022-09-17T06:35:59;3.45;;;1.50;;
53269;SDS011;39159;45.634;9.420;2022-09-17T06:38:29;2.88;;;0.77;;
53269;SDS011;39159;45.634;9.420;2022-09-17T06:40:56;1.10;;;0.90;;
53269;SDS011;39159;45.634;9.420;2022-09-17T06:43:21;1.48;;;0.65;;
53269;SDS011;39159;45.634;9.420;2022-09-17T06:45:53;2.10;;;0.75;;
53269;SDS011;39159;45.634;9.420;2022-09-17T06:48:20;0.77;;;0.60;;
53269;SDS011;39159;45.634;9.420;2022-09-17T06:50:47;1.38;;;0.63;;
53269;SDS011;39159;45.634;9.420;2022-09-17T06:53:12;3.83;;;0.82;;
53269;SDS011;39159;45.634;9.420;2022-09-17T06:55:38;4.32;;;0.85;;
53269;SDS011;39159;45.634;9.420;2022-09-17T06:58:03;2.03;;;0.68;;
53269;SDS011;39159;45.634;9.420;2022-09-17T07:00:29;1.40;;;0.70;;
53269;SDS011;39159;45.634;9.420;2022-09-17T07:02:57;1.67;;;0.63;;
53269;SDS011;39159;45.634;9.420;2022-09-17T07:05:25;0.95;;;0.65;;
53269;SDS011;39159;45.634;9.420;2022-09-17T07:07:51;3.00;;;0.60;;
53269;SDS011;39159;45.634;9.420;2022-09-17T07:10:17;3.13;;;0.77;;
53269;SDS011;39159;45.634;9.420;2022-09-17T07:12:43;1.20;;;0.60;;
53269;SDS011;39159;45.634;9.420;2022-09-17T07:15:09;0.73;;;0.60;;
53269;SDS011;39159;45.634;9.420;2022-09-17T07:17:40;0.95;;;0.60;;
53269;SDS011;39159;45.634;9.420;2022-09-17T07:20:06;1.20;;;0.60;;
53269;SDS011;39159;45.634;9.420;2022-09-17T07:22:34;1.30;;;0.70;;
53269;SDS011;39159;45.634;9.420;2022-09-17T07:25:01;2.80;;;0.75;;
53269;SDS011;39159;45.634;9.420;2022-09-17T07:27:28;1.13;;;0.50;;
53269;SDS011;39159;45.634;9.420;2022-09-17T07:29:54;5.68;;;0.90;;
53269;SDS011;39159;45.634;9.420;2022-09-17T07:32:22;1.10;;;0.60;;
53269;SDS011;39159;45.634;9.420;2022-09-17T07:34:48;1.40;;;0.60;;
53269;SDS011;39159;45.634;9.420;2022-09-17T07:37:16;2.67;;;0.60;;
53269;SDS011;39159;45.634;9.420;2022-09-17T07:39:42;3.17;;;0.82;;
53269;SDS011;39159;45.634;9.420;2022-09-17T07:42:08;2.80;;;0.65;;
53269;SDS011;39159;45.634;9.420;2022-09-17T07:44:34;0.70;;;0.50;;
53269;SDS011;39159;45.634;9.420;2022-09-17T07:46:59;2.35;;;0.60;;
53269;SDS011;39159;45.634;9.420;2022-09-17T07:49:25;2.85;;;0.60;;
53269;SDS011;39159;45.634;9.420;2022-09-17T07:51:50;3.83;;;0.68;;
53269;SDS011;39159;45.634;9.420;2022-09-17T07:54:16;1.02;;;0.90;;
53269;SDS011;39159;45.634;9.420;2022-09-17T07:56:41;0.73;;;0.57;;
53269;SDS011;39159;45.634;9.420;2022-09-17T07:59:08;1.73;;;0.68;;
53269;SDS011;39159;45.634;9.420;2022-09-17T08:01:34;3.25;;;0.88;;
53269;SDS011;39159;45.634;9.420;2022-09-17T08:04:00;5.30;;;0.80;;
53269;SDS011;39159;45.634;9.420;2022-09-17T08:06:27;3.97;;;0.80;;
53269;SDS011;39159;45.634;9.420;2022-09-17T08:08:53;2.40;;;0.93;;
53269;SDS011;39159;45.634;9.420;2022-09-17T08:11:20;3.78;;;1.10;;
53269;SDS011;39159;45.634;9.420;2022-09-17T08:13:48;1.73;;;1.02;;
53269;SDS011;39159;45.634;9.420;2022-09-17T08:16:14;1.55;;;0.93;;
53269;SDS011;39159;45.634;9.420;2022-09-17T08:18:41;1.83;;;0.82;;
53269;SDS011;39159;45.634;9.420;2022-09-17T08:21:09;2.88;;;1.08;;
53269;SDS011;39159;45.634;9.420;2022-09-17T08:23:42;1.05;;;0.90;;
53269;SDS011;39159;45.634;9.420;2022-09-17T08:26:12;1.92;;;0.90;;
53269;SDS011;39159;45.634;9.420;2022-09-17T08:28:39;1.45;;;0.73;;
53269;SDS011;39159;45.634;9.420;2022-09-17T08:31:12;1.85;;;0.90;;
53269;SDS011;39159;45.634;9.420;2022-09-17T08:33:38;2.30;;;1.02;;
53269;SDS011;39159;45.634;9.420;2022-09-17T08:36:05;3.80;;;1.00;;
53269;SDS011;39159;45.634;9.420;2022-09-17T08:38:33;2.22;;;0.90;;
53269;SDS011;39159;45.634;9.420;2022-09-17T08:46:23;2.55;;;1.05;;
53269;SDS011;39159;45.634;9.420;2022-09-17T08:48:55;1.63;;;0.90;;
53269;SDS011;39159;45.634;9.420;2022-09-17T08:51:40;0.90;;;0.60;;
53269;SDS011;39159;45.634;9.420;2022-09-17T08:57:19;2.05;;;0.90;;
53269;SDS011;39159;45.634;9.420;2022-09-17T09:05:34;2.45;;;1.02;;
53269;SDS011;39159;45.634;9.420;2022-09-17T09:08:37;3.60;;;1.08;;
53269;SDS011;39159;45.634;9.420;2022-09-17T09:11:15;4.47;;;0.80;;
53269;SDS011;39159;45.634;9.420;2022-09-17T09:13:48;1.58;;;0.80;;
53269;SDS011;39159;45.634;9.420;2022-09-17T09:16:18;1.40;;;0.90;;
53269;SDS011;39159;45.634;9.420;2022-09-17T09:18:50;1.38;;;0.75;;
53269;SDS011;39159;45.634;9.420;2022-09-17T09:21:25;1.45;;;0.80;;
53269;SDS011;39159;45.634;9.420;2022-09-17T09:29:43;1.33;;;0.82;;
53269;SDS011;39159;45.634;9.420;2022-09-17T09:35:11;4.55;;;1.33;;
53269;SDS011;39159;45.634;9.420;2022-09-17T09:37:42;2.15;;;0.98;;
53269;SDS011;39159;45.634;9.420;2022-09-17T09:43:20;1.00;;;0.73;;
53269;SDS011;39159;45.634;9.420;2022-09-17T09:58:52;1.27;;;0.60;;
53269;SDS011;39159;45.634;9.420;2022-09-17T10:01:18;0.82;;;0.40;;
53269;SDS011;39159;45.634;9.420;2022-09-17T10:03:48;0.93;;;0.50;;
53269;SDS011;39159;45.634;9.420;2022-09-17T10:06:16;5.40;;;0.52;;
53269;SDS011;39159;45.634;9.420;2022-09-17T10:11:25;0.85;;;0.60;;
53269;SDS011;39159;45.634;9.420;2022-09-17T10:16:48;2.30;;;0.50;;
53269;SDS011;39159;45.634;9.420;2022-09-17T10:19:20;2.30;;;0.60;;
53269;SDS011;39159;45.634;9.420;2022-09-17T10:21:49;1.92;;;0.60;;
53269;SDS011;39159;45.634;9.420;2022-09-17T10:24:23;2.78;;;0.70;;
53269;SDS011;39159;45.634;9.420;2022-09-17T10:26:51;2.50;;;0.60;;
53269;SDS011;39159;45.634;9.420;2022-09-17T10:29:31;2.78;;;0.70;;
53269;SDS011;39159;45.634;9.420;2022-09-17T10:31:57;0.68;;;0.45;;
53269;SDS011;39159;45.634;9.420;2022-09-17T10:34:24;0.68;;;0.40;;
53269;SDS011;39159;45.634;9.420;2022-09-17T10:36:56;4.60;;;0.60;;
53269;SDS011;39159;45.634;9.420;2022-09-17T10:41:54;5.88;;;1.17;;
53269;SDS011;39159;45.634;9.420;2022-09-17T10:44:21;1.30;;;0.70;;
53269;SDS011;39159;45.634;9.420;2022-09-17T10:46:48;4.68;;;0.77;;
53269;SDS011;39159;45.634;9.420;2022-09-17T10:57:21;3.15;;;0.57;;
53269;SDS011;39159;45.634;9.420;2022-09-17T11:00:14;4.30;;;0.40;;
53269;SDS011;39159;45.634;9.420;2022-09-17T11:14:36;1.08;;;0.50;;
53269;SDS011;39159;45.634;9.420;2022-09-17T11:17:11;0.47;;;0.32;;
53269;SDS011;39159;45.634;9.420;2022-09-17T11:25:16;0.73;;;0.30;;
53269;SDS011;39159;45.634;9.420;2022-09-17T11:30:14;1.42;;;0.50;;
53269;SDS011;39159;45.634;9.420;2022-09-17T11:35:37;0.57;;;0.30;;
53269;SDS011;39159;45.634;9.420;2022-09-17T11:40:41;0.50;;;0.40;;
53269;SDS011;39159;45.634;9.420;2022-09-17T11:48:31;1.48;;;0.50;;
53269;SDS011;39159;45.634;9.420;2022-09-17T11:56:51;0.60;;;0.40;;
53269;SDS011;39159;45.634;9.420;2022-09-17T11:59:24;6.15;;;0.75;;
53269;SDS011;39159;45.634;9.420;2022-09-17T12:01:59;3.85;;;0.60;;
53269;SDS011;39159;45.634;9.420;2022-09-17T12:04:34;0.60;;;0.30;;
53269;SDS011;39159;45.634;9.420;2022-09-17T12:09:37;1.05;;;0.45;;
53269;SDS011;39159;45.634;9.420;2022-09-17T12:12:06;3.05;;;0.55;;
53269;SDS011;39159;45.634;9.420;2022-09-17T12:20:23;0.47;;;0.40;;
53269;SDS011;39159;45.634;9.420;2022-09-17T12:22:57;0.43;;;0.32;;
53269;SDS011;39159;45.634;9.420;2022-09-17T12:25:29;0.60;;;0.47;;
53269;SDS011;39159;45.634;9.420;2022-09-17T12:28:12;2.30;;;0.40;;
53269;SDS011;39159;45.634;9.420;2022-09-17T12:31:04;0.47;;;0.30;;
53269;SDS011;39159;45.634;9.420;2022-09-17T12:33:44;0.30;;;0.25;;
53269;SDS011;39159;45.634;9.420;2022-09-17T12:39:03;2.30;;;0.52;;
53269;SDS011;39159;45.634;9.420;2022-09-17T12:50:09;0.63;;;0.43;;
53269;SDS011;39159;45.634;9.420;2022-09-17T12:58:25;1.85;;;0.57;;
53269;SDS011;39159;45.634;9.420;2022-09-17T13:01:34;3.92;;;0.45;;
53269;SDS011;39159;45.634;9.420;2022-09-17T13:04:19;1.33;;;0.40;;
53269;SDS011;39159;45.634;9.420;2022-09-17T13:07:14;0.98;;;0.40;;
53269;SDS011;39159;45.634;9.420;2022-09-17T13:09:58;2.15;;;0.60;;
53269;SDS011;39159;45.634;9.420;2022-09-17T13:12:42;0.95;;;0.30;;
53269;SDS011;39159;45.634;9.420;2022-09-17T13:21:09;2.67;;;0.43;;
53269;SDS011;39159;45.634;9.420;2022-09-17T13:23:40;0.55;;;0.40;;
53269;SDS011;39159;45.634;9.420;2022-09-17T13:26:09;2.15;;;0.40;;
53269;SDS011;39159;45.634;9.420;2022-09-17T13:28:44;0.40;;;0.30;;
53269;SDS011;39159;45.634;9.420;2022-09-17T13:31:11;0.73;;;0.40;;
53269;SDS011;39159;45.634;9.420;2022-09-17T13:33:54;1.92;;;0.60;;
53269;SDS011;39159;45.634;9.420;2022-09-17T13:39:06;1.38;;;0.32;;
53269;SDS011;39159;45.634;9.420;2022-09-17T13:41:35;7.13;;;0.60;;
53269;SDS011;39159;45.634;9.420;2022-09-17T13:44:05;2.17;;;0.30;;
53269;SDS011;39159;45.634;9.420;2022-09-17T13:46:33;0.57;;;0.30;;
53269;SDS011;39159;45.634;9.420;2022-09-17T13:49:21;2.13;;;0.30;;
53269;SDS011;39159;45.634;9.420;2022-09-17T13:51:46;0.60;;;0.40;;
53269;SDS011;39159;45.634;9.420;2022-09-17T13:54:14;1.27;;;0.30;;
53269;SDS011;39159;45.634;9.420;2022-09-17T13:59:14;2.38;;;0.50;;
53269;SDS011;39159;45.634;9.420;2022-09-17T14:04:48;0.40;;;0.35;;
53269;SDS011;39159;45.634;9.420;2022-09-17T14:09:49;2.33;;;0.40;;
53269;SDS011;39159;45.634;9.420;2022-09-17T14:12:49;1.02;;;0.38;;
53269;SDS011;39159;45.634;9.420;2022-09-17T14:20:53;3.30;;;0.95;;
53269;SDS011;39159;45.634;9.420;2022-09-17T14:23:30;2.50;;;0.35;;
53269;SDS011;39159;45.634;9.420;2022-09-17T14:25:57;0.40;;;0.40;;
53269;SDS011;39159;45.634;9.420;2022-09-17T14:31:05;1.60;;;0.30;;
53269;SDS011;39159;45.634;9.420;2022-09-17T14:33:36;2.35;;;0.20;;
53269;SDS011;39159;45.634;9.420;2022-09-17T14:36:08;3.72;;;0.43;;
53269;SDS011;39159;45.634;9.420;2022-09-17T14:38:40;1.33;;;0.40;;
53269;SDS011;39159;45.634;9.420;2022-09-17T14:46:05;1.17;;;0.30;;
53269;SDS011;39159;45.634;9.420;2022-09-17T14:48:37;0.60;;;0.25;;
53269;SDS011;39159;45.634;9.420;2022-09-17T14:53:47;0.57;;;0.40;;
53269;SDS011;39159;45.634;9.420;2022-09-17T14:56:31;2.40;;;0.45;;
53269;SDS011;39159;45.634;9.420;2022-09-17T14:59:04;2.28;;;0.50;;
53269;SDS011;39159;45.634;9.420;2022-09-17T15:01:29;4.10;;;0.50;;
53269;SDS011;39159;45.634;9.420;2022-09-17T15:06:41;1.58;;;0.28;;
53269;SDS011;39159;45.634;9.420;2022-09-17T15:09:24;3.30;;;0.30;;
53269;SDS011;39159;45.634;9.420;2022-09-17T15:11:52;0.30;;;0.30;;
53269;SDS011;39159;45.634;9.420;2022-09-17T15:14:21;2.42;;;0.25;;
53269;SDS011;39159;45.634;9.420;2022-09-17T15:16:52;2.38;;;0.40;;
53269;SDS011;39159;45.634;9.420;2022-09-17T15:22:09;0.68;;;0.40;;
53269;SDS011;39159;45.634;9.420;2022-09-17T15:24:40;0.63;;;0.30;;
53269;SDS011;39159;45.634;9.420;2022-09-17T15:27:19;1.77;;;0.50;;
53269;SDS011;39159;45.634;9.420;2022-09-17T15:29:50;1.00;;;0.40;;
53269;SDS011;39159;45.634;9.420;2022-09-17T15:32:22;2.60;;;0.60;;
53269;SDS011;39159;45.634;9.420;2022-09-17T15:37:35;1.73;;;0.30;;
53269;SDS011;39159;45.634;9.420;2022-09-17T15:40:11;0.50;;;0.30;;
53269;SDS011;39159;45.634;9.420;2022-09-17T15:42:39;2.88;;;0.40;;
53269;SDS011;39159;45.634;9.420;2022-09-17T15:45:18;0.50;;;0.40;;
53269;SDS011;39159;45.634;9.420;2022-09-17T15:47:55;1.92;;;0.60;;
53269;SDS011;39159;45.634;9.420;2022-09-17T15:50:27;0.95;;;0.40;;
53269;SDS011;39159;45.634;9.420;2022-09-17T15:55:37;1.00;;;0.30;;
53269;SDS011;39159;45.634;9.420;2022-09-17T16:06:06;0.45;;;0.40;;
53269;SDS011;39159;45.634;9.420;2022-09-17T16:08:52;3.85;;;0.75;;
53269;SDS011;39159;45.634;9.420;2022-09-17T16:11:20;4.25;;;0.40;;
53269;SDS011;39159;45.634;9.420;2022-09-17T16:13:54;0.50;;;0.35;;
53269;SDS011;39159;45.634;9.420;2022-09-17T16:16:31;0.63;;;0.20;;
53269;SDS011;39159;45.634;9.420;2022-09-17T16:18:58;1.95;;;0.40;;
53269;SDS011;39159;45.634;9.420;2022-09-17T16:21:23;1.38;;;0.30;;
53269;SDS011;39159;45.634;9.420;2022-09-17T16:23:49;4.30;;;0.60;;
53269;SDS011;39159;45.634;9.420;2022-09-17T16:26:18;1.00;;;0.40;;
53269;SDS011;39159;45.634;9.420;2022-09-17T16:28:48;1.38;;;0.38;;
53269;SDS011;39159;45.634;9.420;2022-09-17T16:31:17;0.70;;;0.45;;
53269;SDS011;39159;45.634;9.420;2022-09-17T16:33:43;1.42;;;0.52;;
53269;SDS011;39159;45.634;9.420;2022-09-17T16:36:09;0.75;;;0.40;;
53269;SDS011;39159;45.634;9.420;2022-09-17T16:38:34;1.75;;;0.40;;
53269;SDS011;39159;45.634;9.420;2022-09-17T16:41:02;1.17;;;0.50;;
53269;SDS011;39159;45.634;9.420;2022-09-17T16:43:29;2.00;;;0.47;;
53269;SDS011;39159;45.634;9.420;2022-09-17T16:46:00;0.65;;;0.40;;
53269;SDS011;39159;45.634;9.420;2022-09-17T16:48:30;2.33;;;0.45;;
53269;SDS011;39159;45.634;9.420;2022-09-17T16:50:56;3.28;;;0.90;;
53269;SDS011;39159;45.634;9.420;2022-09-17T16:53:22;0.93;;;0.50;;
53269;SDS011;39159;45.634;9.420;2022-09-17T16:55:48;0.82;;;0.47;;
53269;SDS011;39159;45.634;9.420;2022-09-17T16:58:13;1.20;;;0.40;;
53269;SDS011;39159;45.634;9.420;2022-09-17T17:00:41;3.40;;;0.55;;
53269;SDS011;39159;45.634;9.420;2022-09-17T17:03:08;5.28;;;0.77;;
53269;SDS011;39159;45.634;9.420;2022-09-17T17:05:38;2.90;;;0.68;;
53269;SDS011;39159;45.634;9.420;2022-09-17T17:08:04;2.95;;;0.50;;
53269;SDS011;39159;45.634;9.420;2022-09-17T17:10:30;3.00;;;0.68;;
53269;SDS011;39159;45.634;9.420;2022-09-17T17:12:56;0.40;;;0.30;;
53269;SDS011;39159;45.634;9.420;2022-09-17T17:15:22;2.47;;;0.43;;
53269;SDS011;39159;45.634;9.420;2022-09-17T17:17:48;7.93;;;0.60;;
53269;SDS011;39159;45.634;9.420;2022-09-17T17:20:14;1.90;;;0.52;;
53269;SDS011;39159;45.634;9.420;2022-09-17T17:22:41;1.15;;;0.30;;
53269;SDS011;39159;45.634;9.420;2022-09-17T17:25:08;0.25;;;0.20;;
53269;SDS011;39159;45.634;9.420;2022-09-17T17:27:34;1.65;;;0.38;;
53269;SDS011;39159;45.634;9.420;2022-09-17T17:30:02;0.47;;;0.30;;
53269;SDS011;39159;45.634;9.420;2022-09-17T17:32:35;0.73;;;0.30;;
53269;SDS011;39159;45.634;9.420;2022-09-17T17:35:02;0.30;;;0.30;;
53269;SDS011;39159;45.634;9.420;2022-09-17T17:37:28;0.98;;;0.30;;
53269;SDS011;39159;45.634;9.420;2022-09-17T17:39:53;1.48;;;0.30;;
53269;SDS011;39159;45.634;9.420;2022-09-17T17:42:19;0.60;;;0.20;;
53269;SDS011;39159;45.634;9.420;2022-09-17T17:44:45;0.57;;;0.20;;
53269;SDS011;39159;45.634;9.420;2022-09-17T17:47:11;45.83;;;2.75;;
53269;SDS011;39159;45.634;9.420;2022-09-17T17:49:37;1.70;;;0.35;;
53269;SDS011;39159;45.634;9.420;2022-09-17T17:52:03;0.63;;;0.30;;
53269;SDS011;39159;45.634;9.420;2022-09-17T17:54:28;0.30;;;0.30;;
53269;SDS011;39159;45.634;9.420;2022-09-17T17:56:54;0.45;;;0.40;;
53269;SDS011;39159;45.634;9.420;2022-09-17T17:59:20;0.47;;;0.30;;
53269;SDS011;39159;45.634;9.420;2022-09-17T18:01:45;0.60;;;0.40;;
53269;SDS011;39159;45.634;9.420;2022-09-17T18:04:10;3.38;;;0.40;;
53269;SDS011;39159;45.634;9.420;2022-09-17T18:06:36;0.40;;;0.22;;
53269;SDS011;39159;45.634;9.420;2022-09-17T18:09:02;0.50;;;0.40;;
53269;SDS011;39159;45.634;9.420;2022-09-17T18:11:28;0.60;;;0.50;;
53269;SDS011;39159;45.634;9.420;2022-09-17T18:13:55;0.50;;;0.30;;
53269;SDS011;39159;45.634;9.420;2022-09-17T18:16:24;1.27;;;0.40;;
53269;SDS011;39159;45.634;9.420;2022-09-17T18:18:50;0.85;;;0.50;;
53269;SDS011;39159;45.634;9.420;2022-09-17T18:21:20;0.70;;;0.35;;
53269;SDS011;39159;45.634;9.420;2022-09-17T18:23:47;2.03;;;0.38;;
53269;SDS011;39159;45.634;9.420;2022-09-17T18:26:14;0.50;;;0.30;;
53269;SDS011;39159;45.634;9.420;2022-09-17T18:28:42;2.15;;;0.45;;
53269;SDS011;39159;45.634;9.420;2022-09-17T18:31:21;1.25;;;0.30;;
53269;SDS011;39159;45.634;9.420;2022-09-17T18:33:55;1.05;;;0.30;;